sensor_id;sensor_type;location;lat;lon;timestamp;P1;durP1;ratioP1;P2;durP2;ratioP2
4839;SDS011;2434;48.486;7.964;2022-07-22T00:01:21;5.90;;;5.07;;
4839;SDS011;2434;48.486;7.964;2022-07-22T00:03:49;7.07;;;5.57;;
4839;SDS011;2434;48.486;7.964;2022-07-22T00:06:19;7.83;;;5.60;;
4839;SDS011;2434;48.486;7.964;2022-07-22T00:08:47;7.07;;;5.13;;
4839;SDS011;2434;48.486;7.964;2022-07-22T00:11:16;6.30;;;5.80;;
4839;SDS011;2434;48.486;7.964;2022-07-22T00:13:44;7.07;;;5.40;;
4839;SDS011;2434;48.486;7.964;2022-07-22T00:16:13;12.43;;;6.20;;
4839;SDS011;2434;48.486;7.964;2022-07-22T00:18:41;10.47;;;5.80;;
4839;SDS011;2434;48.486;7.964;2022-07-22T00:21:10;5.60;;;5.20;;
4839;SDS011;2434;48.486;7.964;2022-07-22T00:23:40;6.33;;;5.60;;
4839;SDS011;2434;48.486;7.964;2022-07-22T00:26:08;9.63;;;5.70;;
4839;SDS011;2434;48.486;7.964;2022-07-22T00:28:36;9.30;;;5.27;;
4839;SDS011;2434;48.486;7.964;2022-07-22T00:31:05;6.30;;;5.80;;
4839;SDS011;2434;48.486;7.964;2022-07-22T00:33:33;5.80;;;5.20;;
4839;SDS011;2434;48.486;7.964;2022-07-22T00:36:02;10.90;;;6.07;;
4839;SDS011;2434;48.486;7.964;2022-07-22T00:38:30;6.57;;;5.97;;
4839;SDS011;2434;48.486;7.964;2022-07-22T00:41:00;5.83;;;5.33;;
4839;SDS011;2434;48.486;7.964;2022-07-22T00:43:34;5.53;;;5.03;;
4839;SDS011;2434;48.486;7.964;2022-07-22T00:46:16;6.97;;;5.60;;
4839;SDS011;2434;48.486;7.964;2022-07-22T00:48:44;6.57;;;6.07;;
4839;SDS011;2434;48.486;7.964;2022-07-22T00:51:13;6.23;;;5.50;;
4839;SDS011;2434;48.486;7.964;2022-07-22T00:53:41;6.20;;;5.60;;
4839;SDS011;2434;48.486;7.964;2022-07-22T00:56:13;6.03;;;5.53;;
4839;SDS011;2434;48.486;7.964;2022-07-22T00:58:42;6.53;;;6.03;;
4839;SDS011;2434;48.486;7.964;2022-07-22T01:01:11;8.60;;;6.07;;
4839;SDS011;2434;48.486;7.964;2022-07-22T01:03:41;7.60;;;5.90;;
4839;SDS011;2434;48.486;7.964;2022-07-22T01:06:15;8.03;;;5.90;;
4839;SDS011;2434;48.486;7.964;2022-07-22T01:08:43;6.13;;;5.63;;
4839;SDS011;2434;48.486;7.964;2022-07-22T01:11:14;7.93;;;6.00;;
4839;SDS011;2434;48.486;7.964;2022-07-22T01:13:44;9.77;;;5.70;;
4839;SDS011;2434;48.486;7.964;2022-07-22T01:16:13;8.10;;;6.00;;
4839;SDS011;2434;48.486;7.964;2022-07-22T01:18:43;11.47;;;5.87;;
4839;SDS011;2434;48.486;7.964;2022-07-22T01:21:14;7.53;;;5.63;;
4839;SDS011;2434;48.486;7.964;2022-07-22T01:23:44;7.03;;;6.33;;
4839;SDS011;2434;48.486;7.964;2022-07-22T01:26:13;6.20;;;5.67;;
4839;SDS011;2434;48.486;7.964;2022-07-22T01:28:42;10.63;;;6.27;;
4839;SDS011;2434;48.486;7.964;2022-07-22T01:31:10;6.60;;;6.10;;
4839;SDS011;2434;48.486;7.964;2022-07-22T01:33:39;7.13;;;5.87;;
4839;SDS011;2434;48.486;7.964;2022-07-22T01:36:07;10.27;;;6.30;;
4839;SDS011;2434;48.486;7.964;2022-07-22T01:38:37;7.07;;;6.47;;
4839;SDS011;2434;48.486;7.964;2022-07-22T01:41:06;6.87;;;6.27;;
4839;SDS011;2434;48.486;7.964;2022-07-22T01:43:36;9.43;;;6.57;;
4839;SDS011;2434;48.486;7.964;2022-07-22T01:46:05;7.53;;;6.37;;
4839;SDS011;2434;48.486;7.964;2022-07-22T01:48:37;6.27;;;5.57;;
4839;SDS011;2434;48.486;7.964;2022-07-22T01:51:06;6.97;;;5.50;;
4839;SDS011;2434;48.486;7.964;2022-07-22T01:53:38;9.57;;;6.07;;
4839;SDS011;2434;48.486;7.964;2022-07-22T01:56:06;6.27;;;5.63;;
4839;SDS011;2434;48.486;7.964;2022-07-22T01:58:43;8.97;;;6.20;;
4839;SDS011;2434;48.486;7.964;2022-07-22T02:01:12;7.43;;;6.73;;
4839;SDS011;2434;48.486;7.964;2022-07-22T02:03:41;6.50;;;5.90;;
4839;SDS011;2434;48.486;7.964;2022-07-22T02:06:09;8.67;;;7.10;;
4839;SDS011;2434;48.486;7.964;2022-07-22T02:08:39;6.73;;;6.03;;
4839;SDS011;2434;48.486;7.964;2022-07-22T02:11:18;6.73;;;6.13;;
4839;SDS011;2434;48.486;7.964;2022-07-22T02:13:54;7.40;;;6.10;;
4839;SDS011;2434;48.486;7.964;2022-07-22T02:16:25;6.93;;;6.33;;
4839;SDS011;2434;48.486;7.964;2022-07-22T02:18:54;6.97;;;6.40;;
4839;SDS011;2434;48.486;7.964;2022-07-22T02:21:23;7.37;;;6.70;;
4839;SDS011;2434;48.486;7.964;2022-07-22T02:23:58;7.47;;;6.63;;
4839;SDS011;2434;48.486;7.964;2022-07-22T02:26:26;8.67;;;6.70;;
4839;SDS011;2434;48.486;7.964;2022-07-22T02:28:55;10.30;;;6.70;;
4839;SDS011;2434;48.486;7.964;2022-07-22T02:31:24;9.03;;;6.87;;
4839;SDS011;2434;48.486;7.964;2022-07-22T02:33:52;6.83;;;6.23;;
4839;SDS011;2434;48.486;7.964;2022-07-22T02:36:25;6.53;;;6.00;;
4839;SDS011;2434;48.486;7.964;2022-07-22T02:38:56;7.80;;;6.27;;
4839;SDS011;2434;48.486;7.964;2022-07-22T02:41:27;7.33;;;6.60;;
4839;SDS011;2434;48.486;7.964;2022-07-22T02:43:57;7.63;;;6.53;;
4839;SDS011;2434;48.486;7.964;2022-07-22T02:46:26;6.33;;;5.73;;
4839;SDS011;2434;48.486;7.964;2022-07-22T02:49:03;7.10;;;6.37;;
4839;SDS011;2434;48.486;7.964;2022-07-22T02:51:32;8.23;;;6.37;;
4839;SDS011;2434;48.486;7.964;2022-07-22T02:54:01;9.77;;;7.17;;
4839;SDS011;2434;48.486;7.964;2022-07-22T02:56:31;6.97;;;6.40;;
4839;SDS011;2434;48.486;7.964;2022-07-22T02:59:00;7.10;;;5.97;;
4839;SDS011;2434;48.486;7.964;2022-07-22T03:01:28;9.10;;;7.40;;
4839;SDS011;2434;48.486;7.964;2022-07-22T03:03:59;6.87;;;6.27;;
4839;SDS011;2434;48.486;7.964;2022-07-22T03:06:30;7.23;;;6.53;;
4839;SDS011;2434;48.486;7.964;2022-07-22T03:09:12;13.00;;;7.13;;
4839;SDS011;2434;48.486;7.964;2022-07-22T03:11:44;9.40;;;6.53;;
4839;SDS011;2434;48.486;7.964;2022-07-22T03:14:13;7.50;;;6.80;;
4839;SDS011;2434;48.486;7.964;2022-07-22T03:16:42;6.67;;;5.97;;
4839;SDS011;2434;48.486;7.964;2022-07-22T03:19:11;7.97;;;6.87;;
4839;SDS011;2434;48.486;7.964;2022-07-22T03:21:42;8.30;;;7.50;;
4839;SDS011;2434;48.486;7.964;2022-07-22T03:24:11;11.00;;;6.90;;
4839;SDS011;2434;48.486;7.964;2022-07-22T03:26:40;7.90;;;6.70;;
4839;SDS011;2434;48.486;7.964;2022-07-22T03:29:10;7.77;;;7.07;;
4839;SDS011;2434;48.486;7.964;2022-07-22T03:31:39;7.13;;;6.63;;
4839;SDS011;2434;48.486;7.964;2022-07-22T03:34:07;6.90;;;6.30;;
4839;SDS011;2434;48.486;7.964;2022-07-22T03:36:40;9.93;;;7.90;;
4839;SDS011;2434;48.486;7.964;2022-07-22T03:39:09;9.67;;;7.53;;
4839;SDS011;2434;48.486;7.964;2022-07-22T03:41:37;7.70;;;6.93;;
4839;SDS011;2434;48.486;7.964;2022-07-22T03:44:05;8.10;;;7.40;;
4839;SDS011;2434;48.486;7.964;2022-07-22T03:46:35;7.83;;;7.13;;
4839;SDS011;2434;48.486;7.964;2022-07-22T03:49:04;7.50;;;6.80;;
4839;SDS011;2434;48.486;7.964;2022-07-22T03:51:32;6.70;;;6.20;;
4839;SDS011;2434;48.486;7.964;2022-07-22T03:54:00;8.70;;;7.20;;
4839;SDS011;2434;48.486;7.964;2022-07-22T03:56:29;10.80;;;6.53;;
4839;SDS011;2434;48.486;7.964;2022-07-22T03:58:57;7.50;;;6.67;;
4839;SDS011;2434;48.486;7.964;2022-07-22T04:01:27;8.43;;;7.63;;
4839;SDS011;2434;48.486;7.964;2022-07-22T04:03:58;7.43;;;6.73;;
4839;SDS011;2434;48.486;7.964;2022-07-22T04:06:37;7.57;;;6.63;;
4839;SDS011;2434;48.486;7.964;2022-07-22T04:09:18;7.27;;;6.57;;
4839;SDS011;2434;48.486;7.964;2022-07-22T04:11:46;17.53;;;7.57;;
4839;SDS011;2434;48.486;7.964;2022-07-22T04:14:18;7.97;;;7.27;;
4839;SDS011;2434;48.486;7.964;2022-07-22T04:16:47;8.00;;;6.90;;
4839;SDS011;2434;48.486;7.964;2022-07-22T04:19:16;9.50;;;6.70;;
4839;SDS011;2434;48.486;7.964;2022-07-22T04:21:53;9.20;;;7.13;;
4839;SDS011;2434;48.486;7.964;2022-07-22T04:24:24;7.90;;;7.10;;
4839;SDS011;2434;48.486;7.964;2022-07-22T04:26:54;8.33;;;7.53;;
4839;SDS011;2434;48.486;7.964;2022-07-22T04:29:23;7.87;;;6.70;;
4839;SDS011;2434;48.486;7.964;2022-07-22T04:31:52;7.17;;;6.47;;
4839;SDS011;2434;48.486;7.964;2022-07-22T04:34:29;11.90;;;6.63;;
4839;SDS011;2434;48.486;7.964;2022-07-22T04:36:58;8.10;;;7.43;;
4839;SDS011;2434;48.486;7.964;2022-07-22T04:39:31;8.17;;;6.90;;
4839;SDS011;2434;48.486;7.964;2022-07-22T04:42:00;6.53;;;6.00;;
4839;SDS011;2434;48.486;7.964;2022-07-22T04:44:31;10.77;;;6.93;;
4839;SDS011;2434;48.486;7.964;2022-07-22T04:46:59;7.77;;;7.17;;
4839;SDS011;2434;48.486;7.964;2022-07-22T04:49:35;10.00;;;7.70;;
4839;SDS011;2434;48.486;7.964;2022-07-22T04:52:06;8.00;;;7.20;;
4839;SDS011;2434;48.486;7.964;2022-07-22T04:54:45;8.80;;;6.83;;
4839;SDS011;2434;48.486;7.964;2022-07-22T04:57:14;9.10;;;8.17;;
4839;SDS011;2434;48.486;7.964;2022-07-22T04:59:42;9.37;;;7.40;;
4839;SDS011;2434;48.486;7.964;2022-07-22T05:02:11;7.03;;;6.53;;
4839;SDS011;2434;48.486;7.964;2022-07-22T05:04:43;8.47;;;7.67;;
4839;SDS011;2434;48.486;7.964;2022-07-22T05:07:12;16.20;;;8.37;;
4839;SDS011;2434;48.486;7.964;2022-07-22T05:09:41;8.40;;;7.60;;
4839;SDS011;2434;48.486;7.964;2022-07-22T05:12:13;8.90;;;8.10;;
4839;SDS011;2434;48.486;7.964;2022-07-22T05:14:43;12.57;;;9.13;;
4839;SDS011;2434;48.486;7.964;2022-07-22T05:17:11;10.93;;;8.33;;
4839;SDS011;2434;48.486;7.964;2022-07-22T05:20:00;8.37;;;7.60;;
4839;SDS011;2434;48.486;7.964;2022-07-22T05:22:31;8.83;;;8.03;;
4839;SDS011;2434;48.486;7.964;2022-07-22T05:25:10;11.87;;;8.47;;
4839;SDS011;2434;48.486;7.964;2022-07-22T05:27:48;10.03;;;9.03;;
4839;SDS011;2434;48.486;7.964;2022-07-22T05:30:22;12.20;;;10.10;;
4839;SDS011;2434;48.486;7.964;2022-07-22T05:32:51;9.53;;;8.67;;
4839;SDS011;2434;48.486;7.964;2022-07-22T05:35:47;9.70;;;8.80;;
4839;SDS011;2434;48.486;7.964;2022-07-22T05:38:17;11.13;;;9.00;;
4839;SDS011;2434;48.486;7.964;2022-07-22T05:40:46;13.20;;;8.03;;
4839;SDS011;2434;48.486;7.964;2022-07-22T05:43:14;9.83;;;8.80;;
4839;SDS011;2434;48.486;7.964;2022-07-22T05:45:42;11.23;;;9.10;;
4839;SDS011;2434;48.486;7.964;2022-07-22T05:48:10;13.80;;;9.67;;
4839;SDS011;2434;48.486;7.964;2022-07-22T05:50:39;11.97;;;10.60;;
4839;SDS011;2434;48.486;7.964;2022-07-22T05:53:09;11.50;;;10.30;;
4839;SDS011;2434;48.486;7.964;2022-07-22T05:55:39;13.17;;;11.83;;
4839;SDS011;2434;48.486;7.964;2022-07-22T05:58:07;13.43;;;11.73;;
4839;SDS011;2434;48.486;7.964;2022-07-22T06:00:35;16.30;;;12.40;;
4839;SDS011;2434;48.486;7.964;2022-07-22T06:03:05;14.83;;;12.10;;
4839;SDS011;2434;48.486;7.964;2022-07-22T06:05:39;14.40;;;12.90;;
4839;SDS011;2434;48.486;7.964;2022-07-22T06:08:11;14.93;;;13.20;;
4839;SDS011;2434;48.486;7.964;2022-07-22T06:10:46;15.30;;;13.60;;
4839;SDS011;2434;48.486;7.964;2022-07-22T06:13:16;16.37;;;11.93;;
4839;SDS011;2434;48.486;7.964;2022-07-22T06:15:44;13.83;;;12.43;;
4839;SDS011;2434;48.486;7.964;2022-07-22T06:18:14;18.33;;;14.73;;
4839;SDS011;2434;48.486;7.964;2022-07-22T06:20:42;17.13;;;14.07;;
4839;SDS011;2434;48.486;7.964;2022-07-22T06:23:13;14.97;;;12.33;;
4839;SDS011;2434;48.486;7.964;2022-07-22T06:25:42;17.57;;;13.57;;
4839;SDS011;2434;48.486;7.964;2022-07-22T06:28:20;15.93;;;14.27;;
4839;SDS011;2434;48.486;7.964;2022-07-22T06:30:48;19.40;;;13.40;;
4839;SDS011;2434;48.486;7.964;2022-07-22T06:33:18;14.13;;;12.57;;
4839;SDS011;2434;48.486;7.964;2022-07-22T06:35:47;18.27;;;14.23;;
4839;SDS011;2434;48.486;7.964;2022-07-22T06:38:17;15.20;;;13.60;;
4839;SDS011;2434;48.486;7.964;2022-07-22T06:41:11;19.63;;;13.30;;
4839;SDS011;2434;48.486;7.964;2022-07-22T06:44:09;17.70;;;13.80;;
4839;SDS011;2434;48.486;7.964;2022-07-22T06:46:46;14.87;;;13.47;;
4839;SDS011;2434;48.486;7.964;2022-07-22T06:49:17;15.90;;;14.17;;
4839;SDS011;2434;48.486;7.964;2022-07-22T06:51:46;13.07;;;11.63;;
4839;SDS011;2434;48.486;7.964;2022-07-22T06:54:17;27.17;;;13.37;;
4839;SDS011;2434;48.486;7.964;2022-07-22T06:56:47;16.60;;;14.20;;
4839;SDS011;2434;48.486;7.964;2022-07-22T06:59:20;23.00;;;13.40;;
4839;SDS011;2434;48.486;7.964;2022-07-22T07:01:49;16.73;;;14.30;;
4839;SDS011;2434;48.486;7.964;2022-07-22T07:04:19;13.57;;;12.17;;
4839;SDS011;2434;48.486;7.964;2022-07-22T07:06:49;13.23;;;11.80;;
4839;SDS011;2434;48.486;7.964;2022-07-22T07:09:41;17.63;;;13.10;;
4839;SDS011;2434;48.486;7.964;2022-07-22T07:12:19;19.00;;;12.70;;
4839;SDS011;2434;48.486;7.964;2022-07-22T07:15:05;15.00;;;13.50;;
4839;SDS011;2434;48.486;7.964;2022-07-22T07:17:58;16.23;;;13.20;;
4839;SDS011;2434;48.486;7.964;2022-07-22T07:20:27;16.50;;;12.70;;
4839;SDS011;2434;48.486;7.964;2022-07-22T07:22:59;17.00;;;12.33;;
4839;SDS011;2434;48.486;7.964;2022-07-22T07:25:31;18.40;;;12.10;;
4839;SDS011;2434;48.486;7.964;2022-07-22T07:28:00;18.80;;;13.03;;
4839;SDS011;2434;48.486;7.964;2022-07-22T07:30:50;15.07;;;12.83;;
4839;SDS011;2434;48.486;7.964;2022-07-22T07:33:20;14.60;;;11.20;;
4839;SDS011;2434;48.486;7.964;2022-07-22T07:35:50;12.17;;;10.93;;
4839;SDS011;2434;48.486;7.964;2022-07-22T07:38:26;17.60;;;11.60;;
4839;SDS011;2434;48.486;7.964;2022-07-22T07:40:57;16.03;;;11.80;;
4839;SDS011;2434;48.486;7.964;2022-07-22T07:43:25;14.00;;;11.70;;
4839;SDS011;2434;48.486;7.964;2022-07-22T07:45:54;12.57;;;11.27;;
4839;SDS011;2434;48.486;7.964;2022-07-22T07:48:22;15.30;;;11.60;;
4839;SDS011;2434;48.486;7.964;2022-07-22T07:50:54;13.93;;;10.70;;
4839;SDS011;2434;48.486;7.964;2022-07-22T07:53:22;13.47;;;10.37;;
4839;SDS011;2434;48.486;7.964;2022-07-22T07:55:50;16.63;;;11.50;;
4839;SDS011;2434;48.486;7.964;2022-07-22T07:58:20;20.57;;;11.50;;
4839;SDS011;2434;48.486;7.964;2022-07-22T08:00:48;13.83;;;10.73;;
4839;SDS011;2434;48.486;7.964;2022-07-22T08:03:18;13.67;;;11.73;;
4839;SDS011;2434;48.486;7.964;2022-07-22T08:05:47;12.20;;;10.77;;
4839;SDS011;2434;48.486;7.964;2022-07-22T08:08:19;15.97;;;10.13;;
4839;SDS011;2434;48.486;7.964;2022-07-22T08:10:48;11.80;;;10.20;;
4839;SDS011;2434;48.486;7.964;2022-07-22T08:13:46;13.10;;;10.80;;
4839;SDS011;2434;48.486;7.964;2022-07-22T08:16:40;14.13;;;10.70;;
4839;SDS011;2434;48.486;7.964;2022-07-22T08:19:10;16.83;;;10.40;;
4839;SDS011;2434;48.486;7.964;2022-07-22T08:21:41;18.40;;;10.60;;
4839;SDS011;2434;48.486;7.964;2022-07-22T08:24:22;11.60;;;9.70;;
4839;SDS011;2434;48.486;7.964;2022-07-22T08:26:51;11.40;;;10.20;;
4839;SDS011;2434;48.486;7.964;2022-07-22T08:29:21;17.63;;;11.07;;
4839;SDS011;2434;48.486;7.964;2022-07-22T08:31:49;13.00;;;10.80;;
4839;SDS011;2434;48.486;7.964;2022-07-22T08:34:19;16.93;;;11.00;;
4839;SDS011;2434;48.486;7.964;2022-07-22T08:36:47;13.13;;;10.50;;
4839;SDS011;2434;48.486;7.964;2022-07-22T08:39:16;14.20;;;10.67;;
4839;SDS011;2434;48.486;7.964;2022-07-22T08:41:49;13.90;;;9.80;;
4839;SDS011;2434;48.486;7.964;2022-07-22T08:44:18;22.13;;;11.50;;
4839;SDS011;2434;48.486;7.964;2022-07-22T08:46:48;13.40;;;9.33;;
4839;SDS011;2434;48.486;7.964;2022-07-22T08:49:19;9.70;;;8.77;;
4839;SDS011;2434;48.486;7.964;2022-07-22T08:51:50;10.93;;;9.93;;
4839;SDS011;2434;48.486;7.964;2022-07-22T08:54:21;11.30;;;9.57;;
4839;SDS011;2434;48.486;7.964;2022-07-22T08:56:50;11.00;;;9.27;;
4839;SDS011;2434;48.486;7.964;2022-07-22T08:59:24;16.10;;;8.97;;
4839;SDS011;2434;48.486;7.964;2022-07-22T09:02:03;10.03;;;8.40;;
4839;SDS011;2434;48.486;7.964;2022-07-22T09:04:50;18.93;;;10.17;;
4839;SDS011;2434;48.486;7.964;2022-07-22T09:07:24;9.63;;;8.70;;
4839;SDS011;2434;48.486;7.964;2022-07-22T09:10:02;13.60;;;9.10;;
4839;SDS011;2434;48.486;7.964;2022-07-22T09:12:51;9.60;;;8.60;;
4839;SDS011;2434;48.486;7.964;2022-07-22T09:15:47;10.83;;;9.30;;
4839;SDS011;2434;48.486;7.964;2022-07-22T09:18:43;15.47;;;9.87;;
4839;SDS011;2434;48.486;7.964;2022-07-22T09:21:28;13.47;;;9.50;;
4839;SDS011;2434;48.486;7.964;2022-07-22T09:24:07;10.70;;;9.60;;
4839;SDS011;2434;48.486;7.964;2022-07-22T09:26:37;10.80;;;8.57;;
4839;SDS011;2434;48.486;7.964;2022-07-22T09:29:29;16.53;;;10.50;;
4839;SDS011;2434;48.486;7.964;2022-07-22T09:32:31;12.60;;;9.70;;
4839;SDS011;2434;48.486;7.964;2022-07-22T09:35:22;14.30;;;9.70;;
4839;SDS011;2434;48.486;7.964;2022-07-22T09:37:54;14.03;;;9.67;;
4839;SDS011;2434;48.486;7.964;2022-07-22T09:40:24;14.97;;;10.50;;
4839;SDS011;2434;48.486;7.964;2022-07-22T09:42:55;9.80;;;8.90;;
4839;SDS011;2434;48.486;7.964;2022-07-22T09:45:25;13.37;;;9.80;;
4839;SDS011;2434;48.486;7.964;2022-07-22T09:47:57;14.03;;;9.63;;
4839;SDS011;2434;48.486;7.964;2022-07-22T09:50:49;10.80;;;9.67;;
4839;SDS011;2434;48.486;7.964;2022-07-22T09:53:28;11.00;;;8.80;;
4839;SDS011;2434;48.486;7.964;2022-07-22T09:56:23;13.83;;;10.23;;
4839;SDS011;2434;48.486;7.964;2022-07-22T09:58:52;12.13;;;9.23;;
4839;SDS011;2434;48.486;7.964;2022-07-22T10:01:27;15.03;;;10.13;;
4839;SDS011;2434;48.486;7.964;2022-07-22T10:03:58;9.07;;;8.27;;
4839;SDS011;2434;48.486;7.964;2022-07-22T10:06:29;13.33;;;10.93;;
4839;SDS011;2434;48.486;7.964;2022-07-22T10:08:57;9.80;;;8.87;;
4839;SDS011;2434;48.486;7.964;2022-07-22T10:11:35;15.87;;;9.57;;
4839;SDS011;2434;48.486;7.964;2022-07-22T10:14:05;10.70;;;9.60;;
4839;SDS011;2434;48.486;7.964;2022-07-22T10:16:34;12.40;;;10.67;;
4839;SDS011;2434;48.486;7.964;2022-07-22T10:19:06;13.33;;;10.70;;
4839;SDS011;2434;48.486;7.964;2022-07-22T10:21:34;10.67;;;9.67;;
4839;SDS011;2434;48.486;7.964;2022-07-22T10:24:08;19.57;;;10.07;;
4839;SDS011;2434;48.486;7.964;2022-07-22T10:26:48;10.17;;;9.23;;
4839;SDS011;2434;48.486;7.964;2022-07-22T10:29:24;9.87;;;8.90;;
4839;SDS011;2434;48.486;7.964;2022-07-22T10:37:57;12.50;;;9.00;;
4839;SDS011;2434;48.486;7.964;2022-07-22T10:40:28;10.77;;;9.73;;
4839;SDS011;2434;48.486;7.964;2022-07-22T10:43:10;12.20;;;8.67;;
4839;SDS011;2434;48.486;7.964;2022-07-22T10:45:40;13.37;;;10.80;;
4839;SDS011;2434;48.486;7.964;2022-07-22T10:48:12;19.90;;;10.67;;
4839;SDS011;2434;48.486;7.964;2022-07-22T10:50:44;11.13;;;8.83;;
4839;SDS011;2434;48.486;7.964;2022-07-22T10:53:23;16.27;;;9.80;;
4839;SDS011;2434;48.486;7.964;2022-07-22T10:56:13;16.00;;;10.70;;
4839;SDS011;2434;48.486;7.964;2022-07-22T10:58:47;12.60;;;9.60;;
4839;SDS011;2434;48.486;7.964;2022-07-22T11:01:18;10.47;;;9.37;;
4839;SDS011;2434;48.486;7.964;2022-07-22T11:03:48;15.03;;;9.93;;
4839;SDS011;2434;48.486;7.964;2022-07-22T11:06:20;10.27;;;9.27;;
4839;SDS011;2434;48.486;7.964;2022-07-22T11:08:51;10.03;;;8.40;;
4839;SDS011;2434;48.486;7.964;2022-07-22T11:11:31;10.07;;;9.03;;
4839;SDS011;2434;48.486;7.964;2022-07-22T11:14:19;11.20;;;9.80;;
4839;SDS011;2434;48.486;7.964;2022-07-22T11:16:51;9.67;;;8.77;;
4839;SDS011;2434;48.486;7.964;2022-07-22T11:19:22;11.43;;;9.33;;
4839;SDS011;2434;48.486;7.964;2022-07-22T11:21:54;9.57;;;8.33;;
4839;SDS011;2434;48.486;7.964;2022-07-22T11:24:24;9.70;;;8.80;;
4839;SDS011;2434;48.486;7.964;2022-07-22T11:26:55;8.80;;;8.00;;
4839;SDS011;2434;48.486;7.964;2022-07-22T11:29:31;10.10;;;8.90;;
4839;SDS011;2434;48.486;7.964;2022-07-22T11:32:02;9.60;;;8.57;;
4839;SDS011;2434;48.486;7.964;2022-07-22T11:34:32;10.80;;;8.53;;
4839;SDS011;2434;48.486;7.964;2022-07-22T11:37:01;9.90;;;8.80;;
4839;SDS011;2434;48.486;7.964;2022-07-22T11:39:30;13.20;;;9.70;;
4839;SDS011;2434;48.486;7.964;2022-07-22T11:42:00;9.83;;;8.83;;
4839;SDS011;2434;48.486;7.964;2022-07-22T11:44:29;10.23;;;8.53;;
4839;SDS011;2434;48.486;7.964;2022-07-22T11:46:59;15.93;;;8.67;;
4839;SDS011;2434;48.486;7.964;2022-07-22T11:49:29;9.87;;;8.80;;
4839;SDS011;2434;48.486;7.964;2022-07-22T11:51:59;11.13;;;9.50;;
4839;SDS011;2434;48.486;7.964;2022-07-22T11:54:29;10.90;;;8.67;;
4839;SDS011;2434;48.486;7.964;2022-07-22T11:56:58;11.57;;;8.20;;
4839;SDS011;2434;48.486;7.964;2022-07-22T11:59:26;9.37;;;8.53;;
4839;SDS011;2434;48.486;7.964;2022-07-22T12:01:55;9.27;;;7.83;;
4839;SDS011;2434;48.486;7.964;2022-07-22T12:04:24;9.03;;;8.23;;
4839;SDS011;2434;48.486;7.964;2022-07-22T12:06:53;12.10;;;8.27;;
4839;SDS011;2434;48.486;7.964;2022-07-22T12:09:24;8.83;;;8.03;;
4839;SDS011;2434;48.486;7.964;2022-07-22T12:11:55;8.63;;;7.93;;
4839;SDS011;2434;48.486;7.964;2022-07-22T12:14:25;9.03;;;8.10;;
4839;SDS011;2434;48.486;7.964;2022-07-22T12:16:56;11.13;;;8.20;;
4839;SDS011;2434;48.486;7.964;2022-07-22T12:19:26;9.10;;;8.20;;
4839;SDS011;2434;48.486;7.964;2022-07-22T12:21:57;8.93;;;8.10;;
4839;SDS011;2434;48.486;7.964;2022-07-22T12:24:29;13.03;;;8.57;;
4839;SDS011;2434;48.486;7.964;2022-07-22T12:26:59;14.07;;;8.60;;
4839;SDS011;2434;48.486;7.964;2022-07-22T12:29:30;13.67;;;8.70;;
4839;SDS011;2434;48.486;7.964;2022-07-22T12:32:10;12.63;;;8.00;;
4839;SDS011;2434;48.486;7.964;2022-07-22T12:34:44;8.93;;;7.50;;
4839;SDS011;2434;48.486;7.964;2022-07-22T12:37:15;9.77;;;8.20;;
4839;SDS011;2434;48.486;7.964;2022-07-22T12:39:53;10.23;;;8.87;;
4839;SDS011;2434;48.486;7.964;2022-07-22T12:42:26;11.23;;;7.10;;
4839;SDS011;2434;48.486;7.964;2022-07-22T12:45:00;8.83;;;7.93;;
4839;SDS011;2434;48.486;7.964;2022-07-22T12:47:44;15.93;;;8.33;;
4839;SDS011;2434;48.486;7.964;2022-07-22T12:50:18;9.27;;;8.27;;
4839;SDS011;2434;48.486;7.964;2022-07-22T12:52:52;10.67;;;8.10;;
4839;SDS011;2434;48.486;7.964;2022-07-22T12:55:43;9.93;;;8.33;;
4839;SDS011;2434;48.486;7.964;2022-07-22T12:58:13;9.83;;;7.40;;
4839;SDS011;2434;48.486;7.964;2022-07-22T13:00:47;8.47;;;7.63;;
4839;SDS011;2434;48.486;7.964;2022-07-22T13:03:17;9.13;;;8.30;;
4839;SDS011;2434;48.486;7.964;2022-07-22T13:05:46;8.27;;;7.57;;
4839;SDS011;2434;48.486;7.964;2022-07-22T13:08:16;8.50;;;7.90;;
4839;SDS011;2434;48.486;7.964;2022-07-22T13:10:48;16.07;;;8.90;;
4839;SDS011;2434;48.486;7.964;2022-07-22T13:13:17;15.10;;;8.10;;
4839;SDS011;2434;48.486;7.964;2022-07-22T13:15:46;8.17;;;6.80;;
4839;SDS011;2434;48.486;7.964;2022-07-22T13:18:15;12.87;;;7.60;;
4839;SDS011;2434;48.486;7.964;2022-07-22T13:20:44;8.47;;;7.60;;
4839;SDS011;2434;48.486;7.964;2022-07-22T13:23:13;9.30;;;7.97;;
4839;SDS011;2434;48.486;7.964;2022-07-22T13:25:41;10.40;;;7.60;;
4839;SDS011;2434;48.486;7.964;2022-07-22T13:28:11;9.30;;;8.40;;
4839;SDS011;2434;48.486;7.964;2022-07-22T13:30:40;8.27;;;7.47;;
4839;SDS011;2434;48.486;7.964;2022-07-22T13:33:08;8.10;;;6.87;;
4839;SDS011;2434;48.486;7.964;2022-07-22T13:35:36;8.90;;;8.10;;
4839;SDS011;2434;48.486;7.964;2022-07-22T13:38:05;8.27;;;7.23;;
4839;SDS011;2434;48.486;7.964;2022-07-22T13:40:40;7.67;;;6.97;;
4839;SDS011;2434;48.486;7.964;2022-07-22T13:43:09;8.10;;;7.40;;
4839;SDS011;2434;48.486;7.964;2022-07-22T13:45:42;8.83;;;7.80;;
4839;SDS011;2434;48.486;7.964;2022-07-22T13:48:10;11.37;;;8.30;;
4839;SDS011;2434;48.486;7.964;2022-07-22T13:50:39;7.93;;;7.13;;
4839;SDS011;2434;48.486;7.964;2022-07-22T13:53:07;10.73;;;8.10;;
4839;SDS011;2434;48.486;7.964;2022-07-22T13:55:36;7.70;;;7.10;;
4839;SDS011;2434;48.486;7.964;2022-07-22T13:58:05;8.43;;;7.63;;
4839;SDS011;2434;48.486;7.964;2022-07-22T14:00:34;10.43;;;7.40;;
4839;SDS011;2434;48.486;7.964;2022-07-22T14:03:06;9.43;;;7.27;;
4839;SDS011;2434;48.486;7.964;2022-07-22T14:05:34;8.20;;;7.50;;
4839;SDS011;2434;48.486;7.964;2022-07-22T14:08:03;7.80;;;7.00;;
4839;SDS011;2434;48.486;7.964;2022-07-22T14:10:32;8.47;;;6.87;;
4839;SDS011;2434;48.486;7.964;2022-07-22T14:13:00;8.90;;;7.20;;
4839;SDS011;2434;48.486;7.964;2022-07-22T14:15:28;10.70;;;7.17;;
4839;SDS011;2434;48.486;7.964;2022-07-22T14:17:57;8.87;;;7.97;;
4839;SDS011;2434;48.486;7.964;2022-07-22T14:20:27;8.70;;;7.87;;
4839;SDS011;2434;48.486;7.964;2022-07-22T14:22:55;8.83;;;8.03;;
4839;SDS011;2434;48.486;7.964;2022-07-22T14:25:23;12.37;;;7.40;;
4839;SDS011;2434;48.486;7.964;2022-07-22T14:27:52;9.67;;;7.80;;
4839;SDS011;2434;48.486;7.964;2022-07-22T14:30:41;9.37;;;7.40;;
4839;SDS011;2434;48.486;7.964;2022-07-22T14:33:09;7.83;;;6.73;;
4839;SDS011;2434;48.486;7.964;2022-07-22T14:35:39;7.90;;;7.20;;
4839;SDS011;2434;48.486;7.964;2022-07-22T14:38:07;9.63;;;7.33;;
4839;SDS011;2434;48.486;7.964;2022-07-22T14:40:36;9.13;;;7.10;;
4839;SDS011;2434;48.486;7.964;2022-07-22T14:43:05;10.33;;;7.80;;
4839;SDS011;2434;48.486;7.964;2022-07-22T14:45:53;7.80;;;7.03;;
4839;SDS011;2434;48.486;7.964;2022-07-22T14:48:21;9.07;;;7.37;;
4839;SDS011;2434;48.486;7.964;2022-07-22T14:50:51;7.10;;;6.40;;
4839;SDS011;2434;48.486;7.964;2022-07-22T14:53:19;9.30;;;7.53;;
4839;SDS011;2434;48.486;7.964;2022-07-22T14:55:47;10.00;;;7.43;;
4839;SDS011;2434;48.486;7.964;2022-07-22T14:58:16;7.93;;;6.50;;
4839;SDS011;2434;48.486;7.964;2022-07-22T15:00:45;10.47;;;7.83;;
4839;SDS011;2434;48.486;7.964;2022-07-22T15:03:13;7.73;;;7.03;;
4839;SDS011;2434;48.486;7.964;2022-07-22T15:05:41;8.90;;;7.13;;
4839;SDS011;2434;48.486;7.964;2022-07-22T15:08:11;7.57;;;6.87;;
4839;SDS011;2434;48.486;7.964;2022-07-22T15:10:40;7.30;;;6.70;;
4839;SDS011;2434;48.486;7.964;2022-07-22T15:13:08;8.97;;;8.07;;
4839;SDS011;2434;48.486;7.964;2022-07-22T15:15:36;8.27;;;7.57;;
4839;SDS011;2434;48.486;7.964;2022-07-22T15:18:05;15.80;;;8.10;;
4839;SDS011;2434;48.486;7.964;2022-07-22T15:20:33;14.83;;;7.63;;
4839;SDS011;2434;48.486;7.964;2022-07-22T15:23:03;8.47;;;7.77;;
4839;SDS011;2434;48.486;7.964;2022-07-22T15:25:36;8.23;;;7.47;;
4839;SDS011;2434;48.486;7.964;2022-07-22T15:28:05;7.93;;;7.17;;
4839;SDS011;2434;48.486;7.964;2022-07-22T15:30:54;8.70;;;7.80;;
4839;SDS011;2434;48.486;7.964;2022-07-22T15:33:23;9.73;;;7.30;;
4839;SDS011;2434;48.486;7.964;2022-07-22T15:36:01;8.63;;;6.60;;
4839;SDS011;2434;48.486;7.964;2022-07-22T15:38:31;8.00;;;6.70;;
4839;SDS011;2434;48.486;7.964;2022-07-22T15:41:02;8.63;;;7.10;;